createdAt,value
2022-11-28T00:00:48.593Z,11.70
2022-11-28T00:05:52.843Z,12.10
2022-11-28T00:10:56.593Z,12.35
2022-11-28T00:16:04.380Z,9.52
2022-11-28T00:21:11.344Z,12.65
2022-11-28T00:26:17.064Z,13.38
2022-11-28T00:31:24.431Z,13.57
2022-11-28T00:36:28.515Z,12.57
2022-11-28T00:41:33.972Z,10.80
2022-11-28T00:46:39.425Z,12.93
2022-11-28T00:51:43.184Z,11.02
2022-11-28T00:56:46.861Z,15.90
2022-11-28T01:01:52.134Z,10.48
2022-11-28T01:06:57.183Z,9.63
2022-11-28T01:12:00.861Z,9.57
2022-11-28T01:17:05.942Z,6.78
2022-11-28T01:22:09.714Z,5.97
2022-11-28T01:27:13.390Z,6.72
2022-11-28T01:32:18.440Z,8.55
2022-11-28T01:37:22.136Z,11.18
2022-11-28T01:42:25.978Z,9.38
2022-11-28T01:47:32.319Z,5.53
2022-11-28T01:52:39.797Z,11.32
2022-11-28T01:57:43.695Z,9.90
2022-11-28T02:02:50.898Z,7.05
2022-11-28T02:07:55.078Z,9.93
2022-11-28T02:13:14.536Z,6.05
2022-11-28T02:18:35.930Z,7.15
2022-11-28T02:24:00.188Z,9.20
2022-11-28T02:29:37.819Z,10.50
2022-11-28T02:34:51.543Z,7.53
2022-11-28T02:40:06.886Z,9.45
2022-11-28T02:45:14.511Z,11.35
2022-11-28T02:50:25.802Z,8.50
2022-11-28T02:55:29.514Z,7.03
2022-11-28T03:00:36.514Z,7.30
2022-11-28T03:05:47.106Z,7.90
2022-11-28T03:10:56.511Z,7.62
2022-11-28T03:16:12.115Z,5.75
2022-11-28T03:21:23.330Z,6.53
2022-11-28T03:26:34.927Z,8.60
2022-11-28T03:31:42.195Z,7.10
2022-11-28T03:36:52.051Z,6.62
2022-11-28T03:42:01.055Z,7.75
2022-11-28T03:47:07.227Z,8.82
2022-11-28T03:52:17.367Z,11.15
2022-11-28T03:57:29.801Z,7.40
2022-11-28T04:02:39.973Z,7.45
2022-11-28T04:07:47.398Z,7.05
2022-11-28T04:12:58.274Z,6.77
2022-11-28T04:18:07.697Z,7.95
2022-11-28T04:23:16.255Z,6.93
2022-11-28T04:28:24.285Z,7.30
2022-11-28T04:33:33.048Z,7.55
2022-11-28T04:38:40.853Z,7.07
2022-11-28T04:43:49.982Z,6.25
2022-11-28T04:48:53.730Z,7.50
2022-11-28T04:54:02.963Z,7.18
2022-11-28T04:59:08.463Z,6.43
2022-11-28T05:04:13.415Z,6.97
2022-11-28T05:09:18.495Z,8.70
2022-11-28T05:14:22.217Z,6.37
2022-11-28T05:19:25.857Z,6.60
2022-11-28T05:24:32.502Z,8.07
2022-11-28T05:29:36.245Z,8.00
2022-11-28T05:34:40.147Z,12.82
2022-11-28T05:39:45.537Z,9.35
2022-11-28T05:44:49.642Z,11.45
2022-11-28T05:49:53.403Z,12.73
2022-11-28T05:54:58.838Z,15.60
2022-11-28T06:00:02.674Z,15.98
2022-11-28T06:05:35.111Z,18.73
2022-11-28T06:10:40.588Z,27.05
2022-11-28T06:15:45.383Z,22.52
2022-11-28T06:20:49.112Z,24.73
2022-11-28T06:25:54.279Z,27.52
2022-11-28T06:30:57.974Z,25.12
2022-11-28T06:36:02.208Z,27.05
2022-11-28T06:41:09.620Z,29.23
2022-11-28T06:46:16.288Z,28.93
2022-11-28T06:51:21.301Z,33.22
2022-11-28T06:56:26.381Z,35.58
2022-11-28T07:01:31.475Z,35.03
2022-11-28T07:06:35.341Z,39.38
2022-11-28T07:11:43.182Z,39.97
2022-11-28T07:16:47.369Z,41.47
2022-11-28T07:21:51.317Z,46.90
2022-11-28T07:26:56.535Z,47.65
2022-11-28T07:32:00.370Z,43.87
2022-11-28T07:37:04.149Z,44.90
2022-11-28T07:42:09.309Z,48.78
2022-11-28T07:47:13.043Z,53.00
2022-11-28T07:52:16.866Z,45.05
2022-11-28T07:57:21.940Z,49.72
2022-11-28T08:02:27.427Z,52.80
2022-11-28T08:07:31.817Z,60.63
2022-11-28T08:12:36.898Z,60.22
2022-11-28T08:17:40.619Z,55.50
2022-11-28T08:22:44.260Z,56.53
2022-11-28T08:27:49.282Z,50.00
2022-11-28T08:32:52.955Z,56.45
2022-11-28T08:38:01.579Z,52.05
2022-11-28T08:43:08.166Z,48.60
2022-11-28T08:48:12.047Z,54.30
2022-11-28T08:53:18.515Z,57.08
2022-11-28T08:58:23.902Z,56.58
2022-11-28T09:03:27.633Z,57.83
2022-11-28T09:08:31.338Z,48.65
2022-11-28T09:13:37.061Z,50.88
2022-11-28T09:18:40.890Z,56.42
2022-11-28T09:23:45.879Z,54.85
2022-11-28T09:28:51.319Z,54.28
2022-11-28T09:33:55.155Z,51.70
2022-11-28T09:39:00.959Z,53.92
2022-11-28T09:44:15.366Z,54.83
2022-11-28T09:49:30.754Z,51.05
2022-11-28T09:54:45.262Z,56.65
2022-11-28T09:59:50.387Z,60.88
2022-11-28T10:05:04.959Z,56.55
2022-11-28T10:10:18.514Z,59.58
2022-11-28T10:15:41.282Z,65.03
2022-11-28T10:20:48.029Z,55.15
2022-11-28T10:25:56.636Z,63.25
2022-11-28T10:31:06.949Z,62.88
2022-11-28T10:36:16.188Z,65.28
2022-11-28T10:41:25.867Z,69.15
2022-11-28T10:46:44.368Z,66.95
2022-11-28T10:52:01.118Z,71.65
2022-11-28T10:57:12.166Z,76.93
2022-11-28T11:02:23.722Z,87.57
2022-11-28T11:07:30.758Z,104.30
2022-11-28T11:12:35.893Z,88.50
2022-11-28T11:17:40.966Z,98.05
2022-11-28T11:22:55.832Z,96.93
2022-11-28T11:28:01.811Z,100.50
2022-11-28T11:33:14.950Z,96.63
2022-11-28T11:38:32.359Z,95.43
2022-11-28T11:43:40.050Z,93.95
2022-11-28T11:48:46.595Z,96.47
2022-11-28T11:54:00.515Z,94.90
2022-11-28T11:59:10.807Z,94.18
2022-11-28T12:04:43.779Z,101.07
2022-11-28T12:09:47.579Z,99.97
2022-11-28T12:14:52.661Z,90.85
2022-11-28T12:20:10.862Z,82.93
2022-11-28T12:35:39.458Z,103.95
2022-11-28T12:40:53.675Z,92.10
2022-11-28T12:46:06.367Z,89.90
2022-11-28T12:51:21.856Z,95.18
2022-11-28T12:56:39.696Z,95.20
2022-11-28T13:01:55.991Z,97.15
2022-11-28T13:07:10.046Z,89.97
2022-11-28T13:12:24.002Z,98.10
2022-11-28T13:17:42.732Z,90.85
2022-11-28T13:22:59.450Z,91.47
2022-11-28T13:28:12.335Z,97.72
2022-11-28T13:33:31.335Z,103.80
2022-11-28T13:39:09.600Z,92.15
2022-11-28T13:44:18.880Z,101.63
2022-11-28T13:49:24.882Z,97.95
2022-11-28T13:54:42.913Z,87.68
2022-11-28T14:04:52.906Z,85.10
2022-11-28T14:10:16.579Z,77.57
2022-11-28T14:15:30.804Z,71.03
2022-11-28T14:20:46.733Z,89.95
2022-11-28T14:25:54.559Z,98.82
2022-11-28T14:31:06.086Z,80.90
2022-11-28T14:36:26.144Z,78.90
2022-11-28T14:41:31.503Z,73.82
2022-11-28T14:46:35.312Z,87.25
2022-11-28T14:52:38.586Z,87.47
2022-11-28T14:57:58.206Z,82.88
2022-11-28T15:03:27.048Z,71.22
2022-11-28T15:08:50.281Z,78.87
2022-11-28T15:14:16.047Z,88.70
2022-11-28T15:19:25.555Z,87.15
2022-11-28T15:24:33.235Z,84.75
2022-11-28T15:29:38.332Z,79.65
2022-11-28T15:34:42.439Z,87.93
2022-11-28T15:39:48.645Z,71.47
2022-11-28T15:44:57.919Z,81.00
2022-11-28T15:50:03.898Z,93.37
2022-11-28T15:55:16.683Z,80.03
2022-11-28T16:00:24.358Z,72.30
2022-11-28T16:10:38.154Z,77.30
2022-11-28T16:15:50.105Z,71.18
2022-11-28T16:20:55.220Z,73.90
2022-11-28T16:26:03.557Z,92.75
2022-11-28T16:36:21.950Z,72.55
2022-11-28T16:46:35.901Z,62.53
2022-11-28T16:51:41.807Z,69.12
2022-11-28T16:56:45.627Z,83.12
2022-11-28T17:01:54.785Z,81.43
2022-11-28T17:07:04.252Z,77.53
2022-11-28T17:12:12.603Z,69.20
2022-11-28T17:17:19.899Z,76.72
2022-11-28T17:22:25.962Z,62.13
2022-11-28T17:27:29.693Z,63.92
2022-11-28T17:32:34.726Z,68.90
2022-11-28T17:37:38.665Z,69.57
2022-11-28T17:42:42.363Z,69.05
2022-11-28T17:47:47.621Z,77.12
2022-11-28T17:52:51.500Z,74.20
2022-11-28T17:57:55.247Z,65.95
2022-11-28T18:03:01.513Z,65.32
2022-11-28T18:08:05.611Z,56.55
2022-11-28T18:13:12.206Z,69.55
2022-11-28T18:18:17.432Z,69.85
2022-11-28T18:23:21.487Z,73.35
2022-11-28T18:28:26.032Z,73.47
2022-11-28T18:33:31.165Z,63.25
2022-11-28T18:38:34.921Z,60.90
2022-11-28T18:43:39.636Z,66.78
2022-11-28T18:48:47.034Z,51.97
2022-11-28T18:53:52.103Z,51.25
2022-11-28T18:58:57.644Z,43.80
2022-11-28T19:04:04.446Z,61.45
2022-11-28T19:09:10.434Z,62.35
2022-11-28T19:14:16.368Z,59.75
2022-11-28T19:19:21.626Z,65.28
2022-11-28T19:24:26.070Z,55.00
2022-11-28T19:29:29.974Z,49.17
2022-11-28T19:34:36.542Z,51.67
2022-11-28T19:39:40.415Z,46.13
2022-11-28T19:44:44.270Z,47.42
2022-11-28T19:49:50.051Z,63.72
2022-11-28T19:54:54.315Z,51.40
2022-11-28T19:59:58.926Z,48.45
2022-11-28T20:05:04.098Z,49.90
2022-11-28T20:10:09.502Z,50.50
2022-11-28T20:15:18.157Z,51.75
2022-11-28T20:20:23.929Z,50.78
2022-11-28T20:25:27.883Z,49.33
2022-11-28T20:30:31.620Z,53.45
2022-11-28T20:35:36.826Z,50.80
2022-11-28T20:40:41.113Z,50.60
2022-11-28T20:45:44.985Z,60.05
2022-11-28T20:50:50.136Z,56.60
2022-11-28T20:56:00.432Z,53.03
2022-11-28T21:01:05.109Z,52.08
2022-11-28T21:06:10.334Z,58.70
2022-11-28T21:11:36.566Z,50.72
2022-11-28T21:16:39.703Z,45.15
2022-11-28T21:21:44.898Z,60.15
2022-11-28T21:26:53.450Z,62.75
2022-11-28T21:31:58.072Z,53.17
2022-11-28T21:37:03.270Z,60.45
2022-11-28T21:42:07.230Z,59.55
2022-11-28T21:47:10.926Z,57.53
2022-11-28T21:52:16.769Z,49.55
2022-11-28T21:57:20.932Z,52.15
2022-11-28T22:02:30.461Z,51.03
2022-11-28T22:07:37.780Z,53.60
2022-11-28T22:12:41.689Z,57.88
2022-11-28T22:17:45.744Z,54.35
2022-11-28T22:22:51.203Z,50.47
2022-11-28T22:27:54.909Z,57.00
2022-11-28T22:32:59.207Z,54.35
2022-11-28T22:38:04.588Z,60.53
2022-11-28T22:43:09.072Z,66.45
2022-11-28T22:48:12.832Z,59.70
2022-11-28T22:53:18.242Z,55.67
2022-11-28T22:58:22.097Z,60.17
2022-11-28T23:03:25.891Z,51.78
2022-11-28T23:08:31.874Z,49.90
2022-11-28T23:13:36.159Z,47.90
2022-11-28T23:18:41.392Z,50.42
2022-11-28T23:23:46.834Z,48.75
2022-11-28T23:28:51.311Z,54.20
2022-11-28T23:33:55.222Z,45.20
2022-11-28T23:39:02.622Z,48.30
2022-11-28T23:44:06.524Z,46.58
2022-11-28T23:49:10.938Z,54.40
2022-11-28T23:54:16.008Z,53.45
2022-11-28T23:59:19.938Z,59.10
